sensor_id;sensor_type;location;lat;lon;timestamp;P1;durP1;ratioP1;P2;durP2;ratioP2
20970;SDS011;10644;48.834;10.088;2023-07-16T00:00:44;18.87;;;7.40;;
20970;SDS011;10644;48.834;10.088;2023-07-16T00:03:09;15.77;;;7.00;;
20970;SDS011;10644;48.834;10.088;2023-07-16T00:05:36;9.77;;;6.13;;
20970;SDS011;10644;48.834;10.088;2023-07-16T00:08:05;17.87;;;5.90;;
20970;SDS011;10644;48.834;10.088;2023-07-16T00:10:33;8.40;;;5.47;;
20970;SDS011;10644;48.834;10.088;2023-07-16T00:13:00;17.27;;;5.40;;
20970;SDS011;10644;48.834;10.088;2023-07-16T00:15:25;18.13;;;5.50;;
20970;SDS011;10644;48.834;10.088;2023-07-16T00:17:51;8.70;;;4.30;;
20970;SDS011;10644;48.834;10.088;2023-07-16T00:20:16;8.87;;;4.63;;
20970;SDS011;10644;48.834;10.088;2023-07-16T00:22:42;21.70;;;6.10;;
20970;SDS011;10644;48.834;10.088;2023-07-16T00:25:07;7.40;;;4.30;;
20970;SDS011;10644;48.834;10.088;2023-07-16T00:27:33;12.40;;;4.67;;
20970;SDS011;10644;48.834;10.088;2023-07-16T00:29:58;7.53;;;4.10;;
20970;SDS011;10644;48.834;10.088;2023-07-16T00:32:24;9.60;;;4.00;;
20970;SDS011;10644;48.834;10.088;2023-07-16T00:34:49;6.10;;;3.63;;
20970;SDS011;10644;48.834;10.088;2023-07-16T00:37:14;5.83;;;3.27;;
20970;SDS011;10644;48.834;10.088;2023-07-16T00:39:40;5.40;;;3.27;;
20970;SDS011;10644;48.834;10.088;2023-07-16T00:42:05;6.10;;;3.13;;
20970;SDS011;10644;48.834;10.088;2023-07-16T00:44:30;10.17;;;3.90;;
20970;SDS011;10644;48.834;10.088;2023-07-16T00:46:56;14.93;;;3.90;;
20970;SDS011;10644;48.834;10.088;2023-07-16T00:49:23;13.20;;;3.30;;
20970;SDS011;10644;48.834;10.088;2023-07-16T00:51:48;4.13;;;2.53;;
20970;SDS011;10644;48.834;10.088;2023-07-16T00:54:16;9.33;;;3.87;;
20970;SDS011;10644;48.834;10.088;2023-07-16T00:56:41;15.13;;;3.97;;
20970;SDS011;10644;48.834;10.088;2023-07-16T00:59:07;4.40;;;2.77;;
20970;SDS011;10644;48.834;10.088;2023-07-16T01:01:34;9.03;;;3.00;;
20970;SDS011;10644;48.834;10.088;2023-07-16T01:04:00;7.03;;;2.80;;
20970;SDS011;10644;48.834;10.088;2023-07-16T01:06:36;20.87;;;3.87;;
20970;SDS011;10644;48.834;10.088;2023-07-16T01:09:08;5.00;;;2.37;;
20970;SDS011;10644;48.834;10.088;2023-07-16T01:11:39;5.20;;;2.40;;
20970;SDS011;10644;48.834;10.088;2023-07-16T01:14:05;5.90;;;2.20;;
20970;SDS011;10644;48.834;10.088;2023-07-16T01:16:32;7.10;;;2.53;;
20970;SDS011;10644;48.834;10.088;2023-07-16T01:18:58;4.53;;;2.23;;
20970;SDS011;10644;48.834;10.088;2023-07-16T01:21:23;7.13;;;2.20;;
20970;SDS011;10644;48.834;10.088;2023-07-16T01:29:36;7.73;;;2.67;;
20970;SDS011;10644;48.834;10.088;2023-07-16T01:32:07;3.97;;;2.03;;
20970;SDS011;10644;48.834;10.088;2023-07-16T01:34:33;6.53;;;1.73;;
20970;SDS011;10644;48.834;10.088;2023-07-16T01:37:01;11.80;;;2.93;;
20970;SDS011;10644;48.834;10.088;2023-07-16T01:39:27;5.40;;;1.60;;
20970;SDS011;10644;48.834;10.088;2023-07-16T01:41:55;6.10;;;1.67;;
20970;SDS011;10644;48.834;10.088;2023-07-16T01:44:21;3.87;;;1.37;;
20970;SDS011;10644;48.834;10.088;2023-07-16T01:49:30;7.03;;;1.60;;
20970;SDS011;10644;48.834;10.088;2023-07-16T01:51:56;6.33;;;1.47;;
20970;SDS011;10644;48.834;10.088;2023-07-16T01:54:21;7.17;;;2.07;;
20970;SDS011;10644;48.834;10.088;2023-07-16T01:56:49;5.67;;;1.33;;
20970;SDS011;10644;48.834;10.088;2023-07-16T01:59:14;3.73;;;1.43;;
20970;SDS011;10644;48.834;10.088;2023-07-16T02:01:39;5.93;;;1.60;;
20970;SDS011;10644;48.834;10.088;2023-07-16T02:04:05;8.73;;;1.93;;
20970;SDS011;10644;48.834;10.088;2023-07-16T02:06:30;8.63;;;1.97;;
20970;SDS011;10644;48.834;10.088;2023-07-16T02:08:55;6.50;;;1.60;;
20970;SDS011;10644;48.834;10.088;2023-07-16T02:11:21;8.13;;;1.90;;
20970;SDS011;10644;48.834;10.088;2023-07-16T02:13:46;7.70;;;1.50;;
20970;SDS011;10644;48.834;10.088;2023-07-16T02:16:11;7.20;;;1.53;;
20970;SDS011;10644;48.834;10.088;2023-07-16T02:18:37;6.43;;;1.70;;
20970;SDS011;10644;48.834;10.088;2023-07-16T02:21:02;9.33;;;2.03;;
20970;SDS011;10644;48.834;10.088;2023-07-16T02:23:28;9.90;;;2.33;;
20970;SDS011;10644;48.834;10.088;2023-07-16T02:25:53;5.83;;;1.53;;
20970;SDS011;10644;48.834;10.088;2023-07-16T02:28:21;9.20;;;1.70;;
20970;SDS011;10644;48.834;10.088;2023-07-16T02:30:48;15.17;;;2.70;;
20970;SDS011;10644;48.834;10.088;2023-07-16T02:33:14;4.10;;;1.40;;
20970;SDS011;10644;48.834;10.088;2023-07-16T02:35:40;12.33;;;2.07;;
20970;SDS011;10644;48.834;10.088;2023-07-16T02:38:08;6.10;;;1.70;;
20970;SDS011;10644;48.834;10.088;2023-07-16T02:40:34;5.47;;;1.50;;
20970;SDS011;10644;48.834;10.088;2023-07-16T02:42:59;9.77;;;1.60;;
20970;SDS011;10644;48.834;10.088;2023-07-16T02:45:24;15.30;;;2.27;;
20970;SDS011;10644;48.834;10.088;2023-07-16T02:47:50;27.97;;;3.63;;
20970;SDS011;10644;48.834;10.088;2023-07-16T02:50:15;3.20;;;1.50;;
20970;SDS011;10644;48.834;10.088;2023-07-16T02:52:41;29.83;;;4.03;;
20970;SDS011;10644;48.834;10.088;2023-07-16T02:55:06;12.40;;;2.33;;
20970;SDS011;10644;48.834;10.088;2023-07-16T02:57:32;3.10;;;1.67;;
20970;SDS011;10644;48.834;10.088;2023-07-16T02:59:59;5.87;;;1.87;;
20970;SDS011;10644;48.834;10.088;2023-07-16T03:02:25;8.70;;;2.17;;
20970;SDS011;10644;48.834;10.088;2023-07-16T03:04:50;12.53;;;2.70;;
20970;SDS011;10644;48.834;10.088;2023-07-16T03:07:15;5.63;;;1.63;;
20970;SDS011;10644;48.834;10.088;2023-07-16T03:09:41;2.60;;;1.30;;
20970;SDS011;10644;48.834;10.088;2023-07-16T03:12:06;11.93;;;3.00;;
20970;SDS011;10644;48.834;10.088;2023-07-16T03:14:32;6.63;;;1.63;;
20970;SDS011;10644;48.834;10.088;2023-07-16T03:16:57;9.47;;;2.10;;
20970;SDS011;10644;48.834;10.088;2023-07-16T03:19:23;18.27;;;3.50;;
20970;SDS011;10644;48.834;10.088;2023-07-16T03:21:48;5.67;;;1.40;;
20970;SDS011;10644;48.834;10.088;2023-07-16T03:24:16;10.20;;;2.80;;
20970;SDS011;10644;48.834;10.088;2023-07-16T03:26:41;16.60;;;2.77;;
20970;SDS011;10644;48.834;10.088;2023-07-16T03:29:07;3.10;;;1.33;;
20970;SDS011;10644;48.834;10.088;2023-07-16T03:31:32;7.40;;;1.93;;
20970;SDS011;10644;48.834;10.088;2023-07-16T03:33:57;8.53;;;2.17;;
20970;SDS011;10644;48.834;10.088;2023-07-16T03:36:23;10.60;;;2.40;;
20970;SDS011;10644;48.834;10.088;2023-07-16T03:38:48;7.67;;;1.93;;
20970;SDS011;10644;48.834;10.088;2023-07-16T03:41:13;5.77;;;1.90;;
20970;SDS011;10644;48.834;10.088;2023-07-16T03:43:39;6.27;;;2.23;;
20970;SDS011;10644;48.834;10.088;2023-07-16T03:46:04;27.27;;;4.47;;
20970;SDS011;10644;48.834;10.088;2023-07-16T03:48:32;27.50;;;4.43;;
20970;SDS011;10644;48.834;10.088;2023-07-16T03:50:57;38.03;;;5.33;;
20970;SDS011;10644;48.834;10.088;2023-07-16T03:53:23;21.37;;;3.93;;
20970;SDS011;10644;48.834;10.088;2023-07-16T03:55:48;30.07;;;4.63;;
20970;SDS011;10644;48.834;10.088;2023-07-16T03:58:13;38.80;;;5.67;;
20970;SDS011;10644;48.834;10.088;2023-07-16T04:00:40;44.53;;;5.60;;
20970;SDS011;10644;48.834;10.088;2023-07-16T04:03:06;28.20;;;3.90;;
20970;SDS011;10644;48.834;10.088;2023-07-16T04:05:31;31.60;;;4.73;;
20970;SDS011;10644;48.834;10.088;2023-07-16T04:07:57;25.23;;;4.20;;
20970;SDS011;10644;48.834;10.088;2023-07-16T04:10:22;33.80;;;5.43;;
20970;SDS011;10644;48.834;10.088;2023-07-16T04:12:47;49.13;;;6.30;;
20970;SDS011;10644;48.834;10.088;2023-07-16T04:15:13;46.00;;;6.17;;
20970;SDS011;10644;48.834;10.088;2023-07-16T04:17:38;50.30;;;6.70;;
20970;SDS011;10644;48.834;10.088;2023-07-16T04:20:03;36.47;;;5.37;;
20970;SDS011;10644;48.834;10.088;2023-07-16T04:22:32;29.77;;;4.37;;
20970;SDS011;10644;48.834;10.088;2023-07-16T04:24:59;36.13;;;5.17;;
20970;SDS011;10644;48.834;10.088;2023-07-16T04:27:24;26.27;;;3.90;;
20970;SDS011;10644;48.834;10.088;2023-07-16T04:29:49;25.70;;;4.27;;
20970;SDS011;10644;48.834;10.088;2023-07-16T04:32:15;27.13;;;4.10;;
20970;SDS011;10644;48.834;10.088;2023-07-16T04:34:40;30.80;;;4.50;;
20970;SDS011;10644;48.834;10.088;2023-07-16T04:37:05;25.77;;;3.97;;
20970;SDS011;10644;48.834;10.088;2023-07-16T04:39:31;36.67;;;4.83;;
20970;SDS011;10644;48.834;10.088;2023-07-16T04:41:56;35.30;;;4.80;;
20970;SDS011;10644;48.834;10.088;2023-07-16T04:44:22;41.40;;;6.27;;
20970;SDS011;10644;48.834;10.088;2023-07-16T04:46:47;33.77;;;4.70;;
20970;SDS011;10644;48.834;10.088;2023-07-16T04:49:12;36.53;;;5.20;;
20970;SDS011;10644;48.834;10.088;2023-07-16T04:51:38;30.97;;;4.33;;
20970;SDS011;10644;48.834;10.088;2023-07-16T04:54:03;33.37;;;4.63;;
20970;SDS011;10644;48.834;10.088;2023-07-16T04:56:29;33.60;;;4.50;;
20970;SDS011;10644;48.834;10.088;2023-07-16T04:58:54;28.37;;;4.17;;
20970;SDS011;10644;48.834;10.088;2023-07-16T05:01:19;26.23;;;3.67;;
20970;SDS011;10644;48.834;10.088;2023-07-16T05:03:47;30.97;;;4.40;;
20970;SDS011;10644;48.834;10.088;2023-07-16T05:06:12;17.83;;;3.30;;
20970;SDS011;10644;48.834;10.088;2023-07-16T05:08:38;44.97;;;6.20;;
20970;SDS011;10644;48.834;10.088;2023-07-16T05:11:05;34.23;;;5.10;;
20970;SDS011;10644;48.834;10.088;2023-07-16T05:13:31;30.80;;;4.70;;
20970;SDS011;10644;48.834;10.088;2023-07-16T05:15:56;42.30;;;5.77;;
20970;SDS011;10644;48.834;10.088;2023-07-16T05:18:22;21.87;;;3.57;;
20970;SDS011;10644;48.834;10.088;2023-07-16T05:20:47;42.37;;;5.60;;
20970;SDS011;10644;48.834;10.088;2023-07-16T05:23:14;37.67;;;4.90;;
20970;SDS011;10644;48.834;10.088;2023-07-16T05:25:48;28.73;;;4.20;;
20970;SDS011;10644;48.834;10.088;2023-07-16T05:28:17;47.50;;;5.97;;
20970;SDS011;10644;48.834;10.088;2023-07-16T05:30:44;38.23;;;5.10;;
20970;SDS011;10644;48.834;10.088;2023-07-16T05:33:12;25.50;;;4.13;;
20970;SDS011;10644;48.834;10.088;2023-07-16T05:35:38;32.40;;;4.27;;
20970;SDS011;10644;48.834;10.088;2023-07-16T05:38:04;32.73;;;4.70;;
20970;SDS011;10644;48.834;10.088;2023-07-16T05:40:29;25.00;;;4.10;;
20970;SDS011;10644;48.834;10.088;2023-07-16T05:42:55;42.03;;;5.43;;
20970;SDS011;10644;48.834;10.088;2023-07-16T05:45:20;27.33;;;4.00;;
20970;SDS011;10644;48.834;10.088;2023-07-16T05:47:45;44.00;;;5.40;;
20970;SDS011;10644;48.834;10.088;2023-07-16T05:50:11;40.77;;;5.47;;
20970;SDS011;10644;48.834;10.088;2023-07-16T05:52:36;37.00;;;5.40;;
20970;SDS011;10644;48.834;10.088;2023-07-16T05:55:02;44.17;;;5.67;;
20970;SDS011;10644;48.834;10.088;2023-07-16T05:57:27;49.00;;;5.57;;
20970;SDS011;10644;48.834;10.088;2023-07-16T05:59:53;33.70;;;4.77;;
20970;SDS011;10644;48.834;10.088;2023-07-16T06:02:18;37.07;;;5.90;;
20970;SDS011;10644;48.834;10.088;2023-07-16T06:04:44;31.70;;;4.93;;
20970;SDS011;10644;48.834;10.088;2023-07-16T06:07:12;38.30;;;5.40;;
20970;SDS011;10644;48.834;10.088;2023-07-16T06:09:37;31.13;;;4.30;;
20970;SDS011;10644;48.834;10.088;2023-07-16T06:12:03;25.43;;;4.27;;
20970;SDS011;10644;48.834;10.088;2023-07-16T06:14:28;25.53;;;4.20;;
20970;SDS011;10644;48.834;10.088;2023-07-16T06:16:56;36.97;;;5.63;;
20970;SDS011;10644;48.834;10.088;2023-07-16T06:19:21;35.20;;;5.03;;
20970;SDS011;10644;48.834;10.088;2023-07-16T06:21:47;30.40;;;4.23;;
20970;SDS011;10644;48.834;10.088;2023-07-16T06:24:12;35.53;;;5.60;;
20970;SDS011;10644;48.834;10.088;2023-07-16T06:26:40;31.27;;;4.37;;
20970;SDS011;10644;48.834;10.088;2023-07-16T06:29:05;37.83;;;5.80;;
20970;SDS011;10644;48.834;10.088;2023-07-16T06:31:33;30.13;;;4.30;;
20970;SDS011;10644;48.834;10.088;2023-07-16T06:33:59;32.60;;;4.70;;
20970;SDS011;10644;48.834;10.088;2023-07-16T06:36:27;42.63;;;5.40;;
20970;SDS011;10644;48.834;10.088;2023-07-16T06:38:55;36.83;;;5.37;;
20970;SDS011;10644;48.834;10.088;2023-07-16T06:41:20;33.57;;;5.03;;
20970;SDS011;10644;48.834;10.088;2023-07-16T06:43:46;29.20;;;4.73;;
20970;SDS011;10644;48.834;10.088;2023-07-16T06:46:11;31.20;;;4.93;;
20970;SDS011;10644;48.834;10.088;2023-07-16T06:48:36;30.47;;;4.60;;
20970;SDS011;10644;48.834;10.088;2023-07-16T06:51:02;38.50;;;5.83;;
20970;SDS011;10644;48.834;10.088;2023-07-16T06:53:29;24.97;;;4.37;;
20970;SDS011;10644;48.834;10.088;2023-07-16T06:55:55;31.77;;;5.00;;
20970;SDS011;10644;48.834;10.088;2023-07-16T06:58:20;28.73;;;5.03;;
20970;SDS011;10644;48.834;10.088;2023-07-16T07:00:56;31.00;;;5.80;;
20970;SDS011;10644;48.834;10.088;2023-07-16T07:03:23;31.73;;;5.50;;
20970;SDS011;10644;48.834;10.088;2023-07-16T07:05:48;34.57;;;5.13;;
20970;SDS011;10644;48.834;10.088;2023-07-16T07:08:14;35.37;;;6.10;;
20970;SDS011;10644;48.834;10.088;2023-07-16T07:10:39;41.63;;;5.70;;
20970;SDS011;10644;48.834;10.088;2023-07-16T07:13:05;30.73;;;4.80;;
20970;SDS011;10644;48.834;10.088;2023-07-16T07:15:34;62.30;;;7.60;;
20970;SDS011;10644;48.834;10.088;2023-07-16T07:17:59;27.53;;;4.30;;
20970;SDS011;10644;48.834;10.088;2023-07-16T07:20:27;35.93;;;5.80;;
20970;SDS011;10644;48.834;10.088;2023-07-16T07:22:55;45.17;;;6.30;;
20970;SDS011;10644;48.834;10.088;2023-07-16T07:25:20;35.70;;;5.47;;
20970;SDS011;10644;48.834;10.088;2023-07-16T07:27:45;37.00;;;5.40;;
20970;SDS011;10644;48.834;10.088;2023-07-16T07:30:11;42.03;;;6.23;;
20970;SDS011;10644;48.834;10.088;2023-07-16T07:32:36;36.47;;;5.20;;
20970;SDS011;10644;48.834;10.088;2023-07-16T07:35:05;43.70;;;5.90;;
20970;SDS011;10644;48.834;10.088;2023-07-16T07:37:31;37.70;;;5.30;;
20970;SDS011;10644;48.834;10.088;2023-07-16T07:39:58;26.53;;;4.30;;
20970;SDS011;10644;48.834;10.088;2023-07-16T07:42:24;33.57;;;4.70;;
20970;SDS011;10644;48.834;10.088;2023-07-16T07:44:49;33.30;;;5.30;;
20970;SDS011;10644;48.834;10.088;2023-07-16T07:47:15;34.70;;;5.03;;
20970;SDS011;10644;48.834;10.088;2023-07-16T07:49:40;49.00;;;5.40;;
20970;SDS011;10644;48.834;10.088;2023-07-16T07:52:06;42.37;;;5.07;;
20970;SDS011;10644;48.834;10.088;2023-07-16T07:54:31;62.13;;;8.07;;
20970;SDS011;10644;48.834;10.088;2023-07-16T07:57:00;34.87;;;5.57;;
20970;SDS011;10644;48.834;10.088;2023-07-16T07:59:30;32.97;;;5.73;;
20970;SDS011;10644;48.834;10.088;2023-07-16T08:01:56;35.20;;;5.60;;
20970;SDS011;10644;48.834;10.088;2023-07-16T08:04:22;16.03;;;3.37;;
20970;SDS011;10644;48.834;10.088;2023-07-16T08:06:48;36.70;;;6.03;;
20970;SDS011;10644;48.834;10.088;2023-07-16T08:09:13;32.80;;;4.57;;
20970;SDS011;10644;48.834;10.088;2023-07-16T08:11:39;47.13;;;6.67;;
20970;SDS011;10644;48.834;10.088;2023-07-16T08:14:04;28.50;;;4.73;;
20970;SDS011;10644;48.834;10.088;2023-07-16T08:16:32;40.03;;;5.00;;
20970;SDS011;10644;48.834;10.088;2023-07-16T08:18:57;34.00;;;5.37;;
20970;SDS011;10644;48.834;10.088;2023-07-16T08:21:22;35.80;;;5.60;;
20970;SDS011;10644;48.834;10.088;2023-07-16T08:23:51;30.33;;;4.90;;
20970;SDS011;10644;48.834;10.088;2023-07-16T08:26:19;36.87;;;5.50;;
20970;SDS011;10644;48.834;10.088;2023-07-16T08:28:44;27.80;;;4.53;;
20970;SDS011;10644;48.834;10.088;2023-07-16T08:31:11;36.37;;;5.60;;
20970;SDS011;10644;48.834;10.088;2023-07-16T08:33:37;40.90;;;5.80;;
20970;SDS011;10644;48.834;10.088;2023-07-16T08:36:03;36.47;;;5.23;;
20970;SDS011;10644;48.834;10.088;2023-07-16T08:38:29;52.03;;;6.63;;
20970;SDS011;10644;48.834;10.088;2023-07-16T08:40:57;29.33;;;4.57;;
20970;SDS011;10644;48.834;10.088;2023-07-16T08:43:22;34.70;;;5.00;;
20970;SDS011;10644;48.834;10.088;2023-07-16T08:45:48;37.83;;;4.97;;
20970;SDS011;10644;48.834;10.088;2023-07-16T08:48:14;24.90;;;4.30;;
20970;SDS011;10644;48.834;10.088;2023-07-16T08:50:41;29.83;;;4.80;;
20970;SDS011;10644;48.834;10.088;2023-07-16T08:53:07;34.43;;;5.20;;
20970;SDS011;10644;48.834;10.088;2023-07-16T08:55:35;41.23;;;5.40;;
20970;SDS011;10644;48.834;10.088;2023-07-16T08:58:03;30.67;;;4.47;;
20970;SDS011;10644;48.834;10.088;2023-07-16T09:00:32;37.47;;;5.40;;
20970;SDS011;10644;48.834;10.088;2023-07-16T09:02:58;19.13;;;3.57;;
20970;SDS011;10644;48.834;10.088;2023-07-16T09:05:27;36.50;;;4.63;;
20970;SDS011;10644;48.834;10.088;2023-07-16T09:07:54;25.10;;;4.50;;
20970;SDS011;10644;48.834;10.088;2023-07-16T09:10:19;35.23;;;5.27;;
20970;SDS011;10644;48.834;10.088;2023-07-16T09:12:45;35.03;;;5.73;;
20970;SDS011;10644;48.834;10.088;2023-07-16T09:15:16;24.37;;;3.90;;
20970;SDS011;10644;48.834;10.088;2023-07-16T09:17:46;31.87;;;5.00;;
20970;SDS011;10644;48.834;10.088;2023-07-16T09:20:12;58.20;;;8.23;;
20970;SDS011;10644;48.834;10.088;2023-07-16T09:22:43;53.83;;;6.90;;
20970;SDS011;10644;48.834;10.088;2023-07-16T09:25:09;39.00;;;5.47;;
20970;SDS011;10644;48.834;10.088;2023-07-16T09:27:35;32.37;;;4.97;;
20970;SDS011;10644;48.834;10.088;2023-07-16T09:30:00;24.33;;;4.40;;
20970;SDS011;10644;48.834;10.088;2023-07-16T09:33:03;29.17;;;5.17;;
20970;SDS011;10644;48.834;10.088;2023-07-16T09:35:19;18.00;;;3.57;;
20970;SDS011;10644;48.834;10.088;2023-07-16T09:37:44;29.53;;;4.77;;
20970;SDS011;10644;48.834;10.088;2023-07-16T09:40:10;16.90;;;3.20;;
20970;SDS011;10644;48.834;10.088;2023-07-16T09:42:37;44.60;;;6.80;;
20970;SDS011;10644;48.834;10.088;2023-07-16T09:45:07;15.90;;;3.13;;
20970;SDS011;10644;48.834;10.088;2023-07-16T09:47:37;51.73;;;6.90;;
20970;SDS011;10644;48.834;10.088;2023-07-16T09:50:03;22.80;;;5.27;;
20970;SDS011;10644;48.834;10.088;2023-07-16T09:52:30;28.73;;;5.27;;
20970;SDS011;10644;48.834;10.088;2023-07-16T09:54:57;33.50;;;7.80;;
20970;SDS011;10644;48.834;10.088;2023-07-16T09:57:28;28.67;;;4.87;;
20970;SDS011;10644;48.834;10.088;2023-07-16T09:59:58;30.70;;;6.23;;
20970;SDS011;10644;48.834;10.088;2023-07-16T10:02:26;23.37;;;4.47;;
20970;SDS011;10644;48.834;10.088;2023-07-16T10:04:52;23.67;;;4.67;;
20970;SDS011;10644;48.834;10.088;2023-07-16T10:07:24;30.77;;;5.53;;
20970;SDS011;10644;48.834;10.088;2023-07-16T10:09:56;28.77;;;5.60;;
20970;SDS011;10644;48.834;10.088;2023-07-16T10:12:23;21.83;;;4.13;;
20970;SDS011;10644;48.834;10.088;2023-07-16T10:14:50;41.13;;;6.70;;
20970;SDS011;10644;48.834;10.088;2023-07-16T10:17:23;18.37;;;3.90;;
20970;SDS011;10644;48.834;10.088;2023-07-16T10:22:30;23.63;;;5.20;;
20970;SDS011;10644;48.834;10.088;2023-07-16T10:27:47;28.43;;;5.63;;
20970;SDS011;10644;48.834;10.088;2023-07-16T10:30:14;36.60;;;5.87;;
20970;SDS011;10644;48.834;10.088;2023-07-16T10:32:42;35.80;;;6.30;;
20970;SDS011;10644;48.834;10.088;2023-07-16T10:35:08;18.93;;;4.33;;
20970;SDS011;10644;48.834;10.088;2023-07-16T10:37:34;25.03;;;4.50;;
20970;SDS011;10644;48.834;10.088;2023-07-16T10:40:01;24.43;;;4.40;;
20970;SDS011;10644;48.834;10.088;2023-07-16T10:42:30;17.70;;;4.33;;
20970;SDS011;10644;48.834;10.088;2023-07-16T10:44:58;26.23;;;5.10;;
20970;SDS011;10644;48.834;10.088;2023-07-16T10:47:31;18.70;;;4.20;;
20970;SDS011;10644;48.834;10.088;2023-07-16T10:49:57;26.57;;;5.87;;
20970;SDS011;10644;48.834;10.088;2023-07-16T10:52:23;19.83;;;3.80;;
20970;SDS011;10644;48.834;10.088;2023-07-16T10:54:50;21.13;;;4.30;;
20970;SDS011;10644;48.834;10.088;2023-07-16T10:57:19;16.17;;;4.00;;
20970;SDS011;10644;48.834;10.088;2023-07-16T10:59:45;21.37;;;4.37;;
20970;SDS011;10644;48.834;10.088;2023-07-16T11:02:11;24.67;;;4.73;;
20970;SDS011;10644;48.834;10.088;2023-07-16T11:04:38;31.17;;;5.87;;
20970;SDS011;10644;48.834;10.088;2023-07-16T11:07:05;21.40;;;4.43;;
20970;SDS011;10644;48.834;10.088;2023-07-16T11:09:49;24.10;;;4.60;;
20970;SDS011;10644;48.834;10.088;2023-07-16T11:12:18;24.93;;;4.83;;
20970;SDS011;10644;48.834;10.088;2023-07-16T11:14:48;22.33;;;4.13;;
20970;SDS011;10644;48.834;10.088;2023-07-16T11:17:15;22.83;;;4.93;;
20970;SDS011;10644;48.834;10.088;2023-07-16T11:19:41;23.70;;;4.63;;
20970;SDS011;10644;48.834;10.088;2023-07-16T11:22:09;26.73;;;4.60;;
20970;SDS011;10644;48.834;10.088;2023-07-16T11:27:11;24.97;;;4.97;;
20970;SDS011;10644;48.834;10.088;2023-07-16T11:35:08;25.37;;;4.57;;
20970;SDS011;10644;48.834;10.088;2023-07-16T11:37:40;30.60;;;6.07;;
20970;SDS011;10644;48.834;10.088;2023-07-16T11:40:11;25.97;;;4.70;;
20970;SDS011;10644;48.834;10.088;2023-07-16T11:42:41;23.53;;;4.60;;
20970;SDS011;10644;48.834;10.088;2023-07-16T11:45:19;22.40;;;4.83;;
20970;SDS011;10644;48.834;10.088;2023-07-16T11:47:46;33.90;;;6.33;;
20970;SDS011;10644;48.834;10.088;2023-07-16T11:50:14;19.50;;;4.57;;
20970;SDS011;10644;48.834;10.088;2023-07-16T11:52:40;16.60;;;4.90;;
20970;SDS011;10644;48.834;10.088;2023-07-16T11:55:06;25.63;;;4.93;;
20970;SDS011;10644;48.834;10.088;2023-07-16T11:57:32;17.57;;;3.70;;
20970;SDS011;10644;48.834;10.088;2023-07-16T11:59:59;19.77;;;4.20;;
20970;SDS011;10644;48.834;10.088;2023-07-16T12:02:26;19.20;;;4.20;;
20970;SDS011;10644;48.834;10.088;2023-07-16T12:04:52;32.23;;;5.93;;
20970;SDS011;10644;48.834;10.088;2023-07-16T12:07:30;29.37;;;5.33;;
20970;SDS011;10644;48.834;10.088;2023-07-16T12:09:57;28.70;;;5.50;;
20970;SDS011;10644;48.834;10.088;2023-07-16T12:12:23;18.50;;;4.00;;
20970;SDS011;10644;48.834;10.088;2023-07-16T12:14:48;31.47;;;4.90;;
20970;SDS011;10644;48.834;10.088;2023-07-16T12:17:13;20.97;;;3.90;;
20970;SDS011;10644;48.834;10.088;2023-07-16T12:19:41;27.70;;;5.20;;
20970;SDS011;10644;48.834;10.088;2023-07-16T12:22:07;21.67;;;4.83;;
20970;SDS011;10644;48.834;10.088;2023-07-16T12:24:34;15.23;;;4.27;;
20970;SDS011;10644;48.834;10.088;2023-07-16T12:27:00;36.17;;;6.70;;
20970;SDS011;10644;48.834;10.088;2023-07-16T12:29:25;62.77;;;32.57;;
20970;SDS011;10644;48.834;10.088;2023-07-16T12:31:51;31.07;;;5.93;;
20970;SDS011;10644;48.834;10.088;2023-07-16T12:34:16;99.83;;;63.50;;
20970;SDS011;10644;48.834;10.088;2023-07-16T12:36:42;25.67;;;6.77;;
20970;SDS011;10644;48.834;10.088;2023-07-16T12:39:07;22.63;;;5.50;;
20970;SDS011;10644;48.834;10.088;2023-07-16T12:41:33;19.80;;;4.50;;
20970;SDS011;10644;48.834;10.088;2023-07-16T12:43:58;17.73;;;3.80;;
20970;SDS011;10644;48.834;10.088;2023-07-16T12:46:23;19.77;;;4.07;;
20970;SDS011;10644;48.834;10.088;2023-07-16T12:48:49;14.50;;;3.63;;
20970;SDS011;10644;48.834;10.088;2023-07-16T12:51:14;16.73;;;4.13;;
20970;SDS011;10644;48.834;10.088;2023-07-16T12:53:40;20.50;;;4.73;;
20970;SDS011;10644;48.834;10.088;2023-07-16T12:56:06;17.23;;;4.00;;
20970;SDS011;10644;48.834;10.088;2023-07-16T12:58:31;19.77;;;4.30;;
20970;SDS011;10644;48.834;10.088;2023-07-16T13:00:57;24.37;;;4.20;;
20970;SDS011;10644;48.834;10.088;2023-07-16T13:03:24;21.63;;;3.77;;
20970;SDS011;10644;48.834;10.088;2023-07-16T13:05:50;20.53;;;4.47;;
20970;SDS011;10644;48.834;10.088;2023-07-16T13:08:15;17.77;;;4.00;;
20970;SDS011;10644;48.834;10.088;2023-07-16T13:10:40;22.60;;;4.23;;
20970;SDS011;10644;48.834;10.088;2023-07-16T13:13:08;23.80;;;4.60;;
20970;SDS011;10644;48.834;10.088;2023-07-16T13:15:34;19.93;;;4.03;;
20970;SDS011;10644;48.834;10.088;2023-07-16T13:17:59;19.73;;;4.13;;
20970;SDS011;10644;48.834;10.088;2023-07-16T13:20:25;21.70;;;3.90;;
20970;SDS011;10644;48.834;10.088;2023-07-16T13:22:50;28.73;;;5.23;;
20970;SDS011;10644;48.834;10.088;2023-07-16T13:25:16;20.40;;;3.97;;
20970;SDS011;10644;48.834;10.088;2023-07-16T13:27:41;21.17;;;4.50;;
20970;SDS011;10644;48.834;10.088;2023-07-16T13:30:07;17.10;;;3.80;;
20970;SDS011;10644;48.834;10.088;2023-07-16T13:32:32;16.60;;;3.67;;
20970;SDS011;10644;48.834;10.088;2023-07-16T13:34:58;23.77;;;4.50;;
20970;SDS011;10644;48.834;10.088;2023-07-16T13:37:23;27.10;;;4.87;;
20970;SDS011;10644;48.834;10.088;2023-07-16T13:39:49;19.87;;;3.93;;
20970;SDS011;10644;48.834;10.088;2023-07-16T13:42:14;34.97;;;5.77;;
20970;SDS011;10644;48.834;10.088;2023-07-16T13:44:42;27.43;;;4.43;;
20970;SDS011;10644;48.834;10.088;2023-07-16T13:47:07;16.77;;;3.67;;
20970;SDS011;10644;48.834;10.088;2023-07-16T13:49:35;22.97;;;3.80;;
20970;SDS011;10644;48.834;10.088;2023-07-16T13:52:00;14.17;;;3.03;;
20970;SDS011;10644;48.834;10.088;2023-07-16T13:54:26;30.83;;;4.87;;
20970;SDS011;10644;48.834;10.088;2023-07-16T13:56:51;19.13;;;4.40;;
20970;SDS011;10644;48.834;10.088;2023-07-16T13:59:17;19.43;;;4.03;;
20970;SDS011;10644;48.834;10.088;2023-07-16T14:01:42;17.43;;;3.90;;
20970;SDS011;10644;48.834;10.088;2023-07-16T14:04:08;29.47;;;5.17;;
20970;SDS011;10644;48.834;10.088;2023-07-16T14:06:33;24.47;;;4.70;;
20970;SDS011;10644;48.834;10.088;2023-07-16T14:08:59;19.77;;;4.13;;
20970;SDS011;10644;48.834;10.088;2023-07-16T14:11:25;21.83;;;4.23;;
20970;SDS011;10644;48.834;10.088;2023-07-16T14:13:51;20.50;;;3.83;;
20970;SDS011;10644;48.834;10.088;2023-07-16T14:16:18;29.83;;;5.00;;
20970;SDS011;10644;48.834;10.088;2023-07-16T14:18:44;24.60;;;4.57;;
20970;SDS011;10644;48.834;10.088;2023-07-16T14:21:09;22.77;;;4.33;;
20970;SDS011;10644;48.834;10.088;2023-07-16T14:23:35;26.17;;;5.30;;
20970;SDS011;10644;48.834;10.088;2023-07-16T14:26:00;17.37;;;3.90;;
20970;SDS011;10644;48.834;10.088;2023-07-16T14:28:27;24.10;;;3.80;;
20970;SDS011;10644;48.834;10.088;2023-07-16T14:30:53;18.43;;;3.63;;
20970;SDS011;10644;48.834;10.088;2023-07-16T14:33:19;16.97;;;3.90;;
20970;SDS011;10644;48.834;10.088;2023-07-16T14:35:44;26.63;;;4.87;;
20970;SDS011;10644;48.834;10.088;2023-07-16T14:38:10;22.43;;;4.23;;
20970;SDS011;10644;48.834;10.088;2023-07-16T14:40:37;17.77;;;3.90;;